createdAt,value
2019-01-09T00:01:04.612Z,100115.86
2019-01-09T00:03:32.138Z,100125.02
2019-01-09T00:05:59.806Z,100116.48
2019-01-09T00:08:27.284Z,100122.19
2019-01-09T00:10:55.021Z,100120.31
2019-01-09T00:13:22.774Z,100122.31
2019-01-09T00:15:50.568Z,100128.55
2019-01-09T00:18:18.595Z,100128.77
2019-01-09T00:20:45.902Z,100118.03
2019-01-09T00:23:14.126Z,100111.27
2019-01-09T00:25:41.738Z,100119.28
2019-01-09T00:28:09.771Z,100116.97
2019-01-09T00:30:37.590Z,100113.66
2019-01-09T00:33:05.348Z,100124.26
2019-01-09T00:35:37.404Z,100122.28
2019-01-09T00:38:03.518Z,100125.30
2019-01-09T00:40:31.050Z,100122.69
2019-01-09T00:42:58.916Z,100119.80
2019-01-09T00:45:26.395Z,100123.23
2019-01-09T00:47:54.120Z,100128.02
2019-01-09T00:50:21.572Z,100120.83
2019-01-09T00:52:49.456Z,100122.92
2019-01-09T00:55:16.840Z,100116.05
2019-01-09T00:57:44.338Z,100109.38
2019-01-09T01:00:14.638Z,100111.67
2019-01-09T01:03:52.289Z,100118.11
2019-01-09T01:07:38.320Z,100120.70
2019-01-09T01:11:17.531Z,100119.95
2019-01-09T01:14:25.226Z,100136.92
2019-01-09T01:17:32.911Z,100139.23
2019-01-09T01:20:34.680Z,100130.27
2019-01-09T01:23:55.140Z,100128.30
2019-01-09T01:27:13.966Z,100137.55
2019-01-09T01:30:40.843Z,100132.02
2019-01-09T01:33:54.602Z,100132.02
2019-01-09T01:37:12.974Z,100132.83
2019-01-09T01:40:38.340Z,100128.53
2019-01-09T01:43:56.828Z,100124.61
2019-01-09T01:47:22.729Z,100123.55
2019-01-09T01:50:27.161Z,100114.49
2019-01-09T01:53:25.555Z,100110.44
2019-01-09T01:56:43.360Z,100117.20
2019-01-09T01:59:30.644Z,100124.17
2019-01-09T02:02:54.561Z,100124.19
2019-01-09T02:05:36.212Z,100122.61
2019-01-09T02:09:24.474Z,100108.61
2019-01-09T02:12:26.857Z,100101.97
2019-01-09T02:16:00.987Z,100107.78
2019-01-09T02:19:01.436Z,100081.55
2019-01-09T02:22:01.424Z,100072.59
2019-01-09T02:25:41.024Z,100079.06
2019-01-09T02:29:10.870Z,100123.19
2019-01-09T02:32:30.386Z,100147.89
2019-01-09T02:34:58.191Z,100187.80
2019-01-09T02:37:26.351Z,100161.91
2019-01-09T02:39:54.343Z,100168.39
2019-01-09T02:42:21.732Z,100166.63
2019-01-09T02:44:49.181Z,100154.78
2019-01-09T02:47:16.510Z,100175.14
2019-01-09T02:49:44.746Z,100165.84
2019-01-09T02:52:13.059Z,100157.22
2019-01-09T02:54:40.530Z,100147.98
2019-01-09T02:57:07.860Z,100154.06
2019-01-09T02:59:35.404Z,100149.39
2019-01-09T03:02:03.863Z,100144.87
2019-01-09T03:04:31.116Z,100141.80
2019-01-09T03:06:58.775Z,100142.52
2019-01-09T03:09:26.144Z,100144.25
2019-01-09T03:11:53.906Z,100148.56
2019-01-09T03:14:21.895Z,100137.45
2019-01-09T03:16:49.668Z,100146.17
2019-01-09T03:19:17.778Z,100144.45
2019-01-09T03:21:45.567Z,100131.84
2019-01-09T03:24:13.562Z,100131.27
2019-01-09T03:26:41.203Z,100131.22
2019-01-09T03:29:08.950Z,100131.30
2019-01-09T03:31:37.107Z,100130.73
2019-01-09T03:34:05.224Z,100134.98
2019-01-09T03:36:33.317Z,100122.12
2019-01-09T03:39:01.106Z,100124.50
2019-01-09T03:41:28.623Z,100122.44
2019-01-09T03:43:56.672Z,100122.29
2019-01-09T03:46:24.418Z,100114.19
2019-01-09T03:48:51.749Z,100113.24
2019-01-09T03:51:20.350Z,100116.83
2019-01-09T03:53:48.378Z,100112.67
2019-01-09T03:56:16.086Z,100116.83
2019-01-09T03:58:43.577Z,100116.95
2019-01-09T04:01:11.582Z,100116.26
2019-01-09T04:03:39.277Z,100113.41
2019-01-09T04:06:06.772Z,100116.77
2019-01-09T04:08:34.799Z,100112.06
2019-01-09T04:11:02.085Z,100108.16
2019-01-09T04:13:29.322Z,100103.80
2019-01-09T04:15:56.814Z,100108.16
2019-01-09T04:18:24.238Z,100105.98
2019-01-09T04:20:51.714Z,100107.07
2019-01-09T04:23:19.229Z,100108.47
2019-01-09T04:25:46.376Z,100104.38
2019-01-09T04:28:13.915Z,100109.77
2019-01-09T04:30:41.694Z,100104.95
2019-01-09T04:33:08.920Z,100101.42
2019-01-09T04:35:37.092Z,100100.79
2019-01-09T04:38:04.859Z,100099.44
2019-01-09T04:40:35.756Z,100096.73
2019-01-09T04:43:03.530Z,100096.48
2019-01-09T04:45:31.000Z,100092.38
2019-01-09T04:47:58.279Z,100097.00
2019-01-09T04:50:25.978Z,100096.80
2019-01-09T04:52:54.345Z,100099.13
2019-01-09T04:55:21.695Z,100090.31
2019-01-09T04:57:49.527Z,100088.44
2019-01-09T05:00:17.342Z,100103.28
2019-01-09T05:02:44.882Z,100097.89
2019-01-09T05:05:12.785Z,100097.63
2019-01-09T05:07:40.464Z,100094.77
2019-01-09T05:10:07.992Z,100106.61
2019-01-09T05:12:35.524Z,100104.43
2019-01-09T05:15:03.763Z,100100.33
2019-01-09T05:17:31.106Z,100104.73
2019-01-09T05:19:58.556Z,100098.56
2019-01-09T05:22:29.226Z,100096.53
2019-01-09T05:24:57.247Z,100099.60
2019-01-09T05:27:25.335Z,100092.02
2019-01-09T05:29:53.272Z,100101.67
2019-01-09T05:32:20.656Z,100091.59
2019-01-09T05:34:48.320Z,100092.28
2019-01-09T05:37:16.184Z,100092.28
2019-01-09T05:39:43.717Z,100097.69
2019-01-09T05:42:11.651Z,100094.16
2019-01-09T05:44:38.795Z,100097.52
2019-01-09T05:47:06.212Z,100090.94
2019-01-09T05:49:33.764Z,100085.38
2019-01-09T05:52:01.115Z,100090.16
2019-01-09T05:54:28.748Z,100077.70
2019-01-09T05:56:56.775Z,100086.05
2019-01-09T05:59:25.008Z,100083.30
2019-01-09T06:01:52.620Z,100079.92
2019-01-09T06:04:20.234Z,100073.39
2019-01-09T06:06:48.105Z,100082.84
2019-01-09T06:09:16.038Z,100074.11
2019-01-09T06:11:43.861Z,100075.47
2019-01-09T06:14:11.338Z,100070.73
2019-01-09T06:16:38.777Z,100085.80
2019-01-09T06:19:06.803Z,100082.21
2019-01-09T06:21:35.064Z,100087.30
2019-01-09T06:24:02.555Z,100083.05
2019-01-09T06:26:30.187Z,100091.34
2019-01-09T06:28:57.974Z,100092.23
2019-01-09T06:31:25.857Z,100095.87
2019-01-09T06:33:54.138Z,100101.92
2019-01-09T06:36:21.967Z,100110.97
2019-01-09T06:38:49.890Z,100124.78
2019-01-09T06:41:17.499Z,100132.82
2019-01-09T06:43:44.893Z,100153.91
2019-01-09T06:46:12.517Z,100140.41
2019-01-09T06:48:40.734Z,100145.54
2019-01-09T06:51:08.879Z,100153.23
2019-01-09T06:53:36.571Z,100146.23
2019-01-09T06:56:04.428Z,100144.93
2019-01-09T06:58:31.561Z,100149.39
2019-01-09T07:00:59.198Z,100147.27
2019-01-09T07:03:26.502Z,100150.11
2019-01-09T07:05:53.742Z,100145.17
2019-01-09T07:08:21.442Z,100151.98
2019-01-09T07:10:48.890Z,100156.89
2019-01-09T07:13:16.726Z,100149.74
2019-01-09T07:15:44.388Z,100154.30
2019-01-09T07:18:12.223Z,100163.69
2019-01-09T07:20:39.671Z,100154.69
2019-01-09T07:23:07.074Z,100155.98
2019-01-09T07:25:34.371Z,100158.16
2019-01-09T07:28:02.069Z,100153.80
2019-01-09T07:30:29.513Z,100154.19
2019-01-09T07:32:56.758Z,100160.29
2019-01-09T07:35:25.047Z,100169.47
2019-01-09T07:37:52.393Z,100163.10
2019-01-09T07:40:19.591Z,100163.84
2019-01-09T07:42:47.061Z,100168.78
2019-01-09T07:45:15.013Z,100159.66
2019-01-09T07:47:42.847Z,100160.42
2019-01-09T07:50:10.075Z,100165.50
2019-01-09T07:52:37.755Z,100170.20
2019-01-09T07:55:05.553Z,100174.55
2019-01-09T07:57:33.378Z,100177.39
2019-01-09T08:00:00.551Z,100176.99
2019-01-09T08:02:28.284Z,100176.66
2019-01-09T08:04:55.843Z,100171.61
2019-01-09T08:07:23.927Z,100182.00
2019-01-09T08:09:51.649Z,100182.07
2019-01-09T08:12:19.376Z,100183.30
2019-01-09T08:14:47.372Z,100185.28
2019-01-09T08:17:14.813Z,100187.66
2019-01-09T08:19:42.531Z,100190.66
2019-01-09T08:22:10.154Z,100187.64
2019-01-09T08:24:38.070Z,100191.18
2019-01-09T08:27:05.991Z,100201.66
2019-01-09T08:29:33.857Z,100191.18
2019-01-09T08:32:01.322Z,100203.45
2019-01-09T08:34:29.006Z,100201.00
2019-01-09T08:36:56.289Z,100205.95
2019-01-09T08:39:24.052Z,100212.84
2019-01-09T08:41:51.546Z,100215.02
2019-01-09T08:44:18.813Z,100208.84
2019-01-09T08:46:46.971Z,100209.44
2019-01-09T08:49:14.235Z,100214.32
2019-01-09T08:51:41.749Z,100216.06
2019-01-09T08:54:09.111Z,100214.94
2019-01-09T08:56:36.989Z,100217.89
2019-01-09T08:59:04.360Z,100216.02
2019-01-09T09:01:31.980Z,100214.81
2019-01-09T09:03:59.355Z,100213.45
2019-01-09T09:06:27.239Z,100215.64
2019-01-09T09:08:56.134Z,100231.56
2019-01-09T09:11:24.894Z,100225.46
2019-01-09T09:13:52.550Z,100219.58
2019-01-09T09:16:19.935Z,100229.50
2019-01-09T09:18:47.423Z,100230.37
2019-01-09T09:21:14.873Z,100225.14
2019-01-09T09:23:42.495Z,100225.48
2019-01-09T09:26:10.281Z,100249.38
2019-01-09T09:28:37.703Z,100238.04
2019-01-09T09:31:09.035Z,100242.65
2019-01-09T09:33:36.805Z,100252.56
2019-01-09T09:36:04.648Z,100256.47
2019-01-09T09:38:32.540Z,100255.80
2019-01-09T09:41:01.205Z,100260.09
2019-01-09T09:43:28.826Z,100269.19
2019-01-09T09:45:56.699Z,100282.65
2019-01-09T09:48:24.307Z,100278.36
2019-01-09T09:50:51.838Z,100272.60
2019-01-09T09:53:19.534Z,100275.51
2019-01-09T09:55:46.825Z,100274.83
2019-01-09T09:58:14.059Z,100275.97
2019-01-09T10:00:41.881Z,100279.97
2019-01-09T10:03:09.581Z,100280.47
2019-01-09T10:05:37.558Z,100276.93
2019-01-09T10:08:04.925Z,100280.69
2019-01-09T10:10:32.858Z,100284.22
2019-01-09T10:13:00.919Z,100283.55
2019-01-09T10:15:28.537Z,100284.48
2019-01-09T10:17:56.054Z,100284.70
2019-01-09T10:20:23.838Z,100287.41
2019-01-09T10:22:51.511Z,100286.89
2019-01-09T10:25:19.211Z,100294.07
2019-01-09T10:27:46.530Z,100293.77
2019-01-09T10:30:16.392Z,100287.50
2019-01-09T10:32:44.774Z,100287.11
2019-01-09T10:35:12.833Z,100286.98
2019-01-09T10:37:40.611Z,100286.24
2019-01-09T10:40:11.403Z,100296.33
2019-01-09T10:42:39.481Z,100290.20
2019-01-09T10:45:08.734Z,100294.56
2019-01-09T10:47:39.711Z,100286.13
2019-01-09T10:50:08.674Z,100287.55
2019-01-09T10:52:35.958Z,100282.06
2019-01-09T10:55:04.631Z,100282.86
2019-01-09T10:57:32.461Z,100275.46
2019-01-09T10:59:59.866Z,100289.88
2019-01-09T11:02:27.884Z,100283.11
2019-01-09T11:04:55.210Z,100279.81
2019-01-09T11:07:23.127Z,100290.57
2019-01-09T11:09:50.350Z,100284.42
2019-01-09T11:12:24.756Z,100286.27
2019-01-09T11:14:52.483Z,100292.27
2019-01-09T11:17:20.434Z,100288.14
2019-01-09T11:19:51.186Z,100282.73
2019-01-09T11:22:18.682Z,100289.84
2019-01-09T11:24:46.562Z,100285.88
2019-01-09T11:27:16.527Z,100289.43
2019-01-09T11:29:43.905Z,100288.92
2019-01-09T11:32:11.143Z,100284.31
2019-01-09T11:34:39.139Z,100293.25
2019-01-09T11:37:06.389Z,100288.99
2019-01-09T11:39:34.036Z,100287.23
2019-01-09T11:42:01.293Z,100287.95
2019-01-09T11:44:28.532Z,100280.66
2019-01-09T11:46:56.290Z,100291.78
2019-01-09T11:49:23.586Z,100285.05
2019-01-09T11:51:51.370Z,100278.38
2019-01-09T11:54:18.770Z,100279.02
2019-01-09T11:56:46.961Z,100281.95
2019-01-09T11:59:15.767Z,100279.59
2019-01-09T12:01:43.805Z,100280.97
2019-01-09T12:04:11.328Z,100269.27
2019-01-09T12:06:39.199Z,100272.61
2019-01-09T12:09:08.641Z,100275.64
2019-01-09T12:11:35.943Z,100276.48
2019-01-09T12:14:04.055Z,100280.45
2019-01-09T12:16:36.543Z,100281.01
2019-01-09T12:19:04.307Z,100287.41
2019-01-09T12:21:31.774Z,100275.73
2019-01-09T12:23:59.353Z,100281.25
2019-01-09T12:26:26.936Z,100278.63
2019-01-09T12:28:55.283Z,100286.55
2019-01-09T12:31:23.005Z,100287.51
2019-01-09T12:33:50.649Z,100280.80
2019-01-09T12:36:18.497Z,100279.96
2019-01-09T12:38:45.881Z,100284.25
2019-01-09T12:41:13.720Z,100287.56
2019-01-09T12:43:40.835Z,100289.05
2019-01-09T12:46:16.476Z,100288.52
2019-01-09T12:48:44.832Z,100289.62
2019-01-09T12:51:12.193Z,100304.77
2019-01-09T12:53:39.785Z,100295.28
2019-01-09T12:56:07.985Z,100302.17
2019-01-09T12:58:36.791Z,100303.53
2019-01-09T13:01:04.246Z,100314.47
2019-01-09T13:03:32.005Z,100305.61
2019-01-09T13:05:59.668Z,100310.41
2019-01-09T13:08:27.292Z,100320.45
2019-01-09T13:10:54.875Z,100324.43
2019-01-09T13:13:22.450Z,100328.19
2019-01-09T13:15:49.698Z,100326.62
2019-01-09T13:18:17.347Z,100327.97
2019-01-09T13:20:44.948Z,100339.88
2019-01-09T13:23:14.579Z,100337.59
2019-01-09T13:25:42.032Z,100341.22
2019-01-09T13:28:10.074Z,100338.82
2019-01-09T13:30:37.614Z,100337.16
2019-01-09T13:33:05.242Z,100335.71
2019-01-09T13:35:33.114Z,100343.42
2019-01-09T13:38:01.299Z,100344.86
2019-01-09T13:40:29.642Z,100347.39
2019-01-09T13:42:56.882Z,100344.37
2019-01-09T13:45:24.911Z,100340.80
2019-01-09T13:47:54.551Z,100342.15
2019-01-09T13:50:22.642Z,100352.52
2019-01-09T13:52:50.228Z,100356.23
2019-01-09T13:55:17.993Z,100348.01
2019-01-09T13:57:45.507Z,100352.19
2019-01-09T14:00:21.637Z,100354.16
2019-01-09T14:02:49.507Z,100351.97
2019-01-09T14:05:17.334Z,100357.27
2019-01-09T14:07:44.990Z,100351.80
2019-01-09T14:10:18.991Z,100352.87
2019-01-09T14:12:46.239Z,100354.84
2019-01-09T14:15:17.092Z,100349.83
2019-01-09T14:17:44.451Z,100365.05
2019-01-09T14:20:12.639Z,100361.91
2019-01-09T14:22:40.428Z,100356.92
2019-01-09T14:25:09.058Z,100363.16
2019-01-09T14:27:36.771Z,100358.98
2019-01-09T14:30:08.269Z,100364.20
2019-01-09T14:32:35.595Z,100366.67
2019-01-09T14:35:03.937Z,100367.39
2019-01-09T14:37:31.158Z,100370.94
2019-01-09T14:39:58.978Z,100372.27
2019-01-09T14:42:26.369Z,100381.64
2019-01-09T14:44:53.455Z,100382.70
2019-01-09T14:47:21.042Z,100384.20
2019-01-09T14:49:48.461Z,100378.27
2019-01-09T14:52:15.951Z,100387.75
2019-01-09T14:54:43.245Z,100385.52
2019-01-09T14:57:10.881Z,100383.44
2019-01-09T14:59:38.294Z,100388.92
2019-01-09T15:02:06.046Z,100388.72
2019-01-09T15:04:33.631Z,100398.91
2019-01-09T15:07:01.089Z,100401.38
2019-01-09T15:09:28.979Z,100403.93
2019-01-09T15:11:56.332Z,100412.11
2019-01-09T15:14:23.732Z,100412.27
2019-01-09T15:16:52.089Z,100422.94
2019-01-09T15:19:19.701Z,100415.22
2019-01-09T15:21:47.532Z,100415.85
2019-01-09T15:24:14.776Z,100420.64
2019-01-09T15:26:42.272Z,100422.69
2019-01-09T15:29:10.142Z,100429.45
2019-01-09T15:31:37.839Z,100430.55
2019-01-09T15:34:05.355Z,100437.05
2019-01-09T15:36:33.233Z,100435.42
2019-01-09T15:39:00.670Z,100436.82
2019-01-09T15:41:28.480Z,100437.25
2019-01-09T15:43:56.334Z,100438.44
2019-01-09T15:46:24.159Z,100448.02
2019-01-09T15:48:52.130Z,100441.52
2019-01-09T15:51:19.961Z,100448.42
2019-01-09T15:53:47.522Z,100453.58
2019-01-09T15:56:15.042Z,100457.37
2019-01-09T15:58:42.821Z,100461.12
2019-01-09T16:01:10.495Z,100464.34
2019-01-09T16:03:38.781Z,100460.71
2019-01-09T16:06:06.244Z,100461.84
2019-01-09T16:08:33.917Z,100463.82
2019-01-09T16:11:01.202Z,100466.27
2019-01-09T16:13:28.475Z,100466.98
2019-01-09T16:15:55.976Z,100462.34
2019-01-09T16:18:23.207Z,100471.30
2019-01-09T16:20:51.002Z,100472.78
2019-01-09T16:23:18.382Z,100477.73
2019-01-09T16:25:45.878Z,100475.48
2019-01-09T16:28:13.698Z,100482.05
2019-01-09T16:30:55.354Z,100492.34
2019-01-09T16:33:23.430Z,100495.13
2019-01-09T16:35:50.933Z,100496.28
2019-01-09T16:38:18.327Z,100502.97
2019-01-09T16:40:46.113Z,100507.15
2019-01-09T16:43:13.630Z,100508.06
2019-01-09T16:45:40.979Z,100503.22
2019-01-09T16:48:08.182Z,100501.87
2019-01-09T16:50:35.909Z,100505.92
2019-01-09T16:53:03.389Z,100509.02
2019-01-09T16:55:30.567Z,100517.66
2019-01-09T16:57:57.845Z,100507.20
2019-01-09T17:00:27.919Z,100512.29
2019-01-09T17:02:55.928Z,100512.66
2019-01-09T17:05:23.719Z,100517.73
2019-01-09T17:07:51.893Z,100517.94
2019-01-09T17:10:20.018Z,100516.78
2019-01-09T17:12:48.045Z,100521.39
2019-01-09T17:15:16.164Z,100521.35
2019-01-09T17:17:43.734Z,100519.48
2019-01-09T17:20:15.231Z,100527.84
2019-01-09T17:22:43.613Z,100528.35
2019-01-09T17:25:11.407Z,100534.51
2019-01-09T17:27:39.831Z,100529.84
2019-01-09T17:30:13.855Z,100536.53
2019-01-09T17:32:41.524Z,100543.39
2019-01-09T17:35:09.391Z,100540.47
2019-01-09T17:37:37.067Z,100544.00
2019-01-09T17:40:06.253Z,100541.86
2019-01-09T17:42:34.284Z,100547.26
2019-01-09T17:45:02.370Z,100544.27
2019-01-09T17:47:29.765Z,100554.84
2019-01-09T17:49:57.135Z,100561.94
2019-01-09T17:52:26.953Z,100549.95
2019-01-09T17:54:54.409Z,100558.20
2019-01-09T17:57:22.882Z,100558.70
2019-01-09T17:59:50.425Z,100559.33
2019-01-09T18:02:18.082Z,100564.09
2019-01-09T18:04:45.514Z,100566.26
2019-01-09T18:07:13.231Z,100566.96
2019-01-09T18:09:40.780Z,100573.49
2019-01-09T18:12:08.065Z,100574.73
2019-01-09T18:14:35.520Z,100570.28
2019-01-09T18:17:02.893Z,100572.68
2019-01-09T18:19:30.029Z,100578.15
2019-01-09T18:21:57.897Z,100577.77
2019-01-09T18:24:26.778Z,100582.22
2019-01-09T18:26:54.183Z,100587.27
2019-01-09T18:29:22.434Z,100601.10
2019-01-09T18:32:41.072Z,100592.36
2019-01-09T18:35:26.181Z,100590.40
2019-01-09T18:38:16.145Z,100590.77
2019-01-09T18:41:23.834Z,100598.28
2019-01-09T18:44:39.686Z,100603.63
2019-01-09T18:47:45.554Z,100601.74
2019-01-09T18:51:13.638Z,100609.54
2019-01-09T18:53:51.577Z,100606.84
2019-01-09T18:56:21.105Z,100612.16
2019-01-09T18:58:49.213Z,100612.98
2019-01-09T19:01:17.624Z,100617.63
2019-01-09T19:03:45.533Z,100623.58
2019-01-09T19:06:13.820Z,100622.88
2019-01-09T19:08:42.606Z,100625.17
2019-01-09T19:11:10.182Z,100625.97
2019-01-09T19:13:37.884Z,100629.69
2019-01-09T19:16:06.521Z,100637.97
2019-01-09T19:18:34.661Z,100644.51
2019-01-09T19:21:08.587Z,100640.09
2019-01-09T19:23:36.443Z,100642.33
2019-01-09T19:26:04.347Z,100644.63
2019-01-09T19:28:37.274Z,100651.50
2019-01-09T19:31:05.118Z,100654.34
2019-01-09T19:33:33.252Z,100647.41
2019-01-09T19:36:02.373Z,100662.53
2019-01-09T19:38:30.062Z,100659.34
2019-01-09T19:40:59.622Z,100663.33
2019-01-09T19:43:26.995Z,100672.26
2019-01-09T19:45:54.670Z,100670.89
2019-01-09T19:48:22.923Z,100673.78
2019-01-09T19:50:50.711Z,100679.83
2019-01-09T19:53:18.550Z,100679.12
2019-01-09T19:55:46.042Z,100685.85
2019-01-09T19:58:14.377Z,100680.84
2019-01-09T20:00:41.959Z,100686.89
2019-01-09T20:03:10.032Z,100689.41
2019-01-09T20:05:37.734Z,100685.88
2019-01-09T20:08:05.734Z,100686.05
2019-01-09T20:10:33.335Z,100691.97
2019-01-09T20:13:01.216Z,100696.46
2019-01-09T20:15:29.410Z,100694.85
2019-01-09T20:17:56.932Z,100694.67
2019-01-09T20:20:24.371Z,100696.85
2019-01-09T20:22:56.830Z,100702.75
2019-01-09T20:25:24.864Z,100699.73
2019-01-09T20:27:52.389Z,100700.88
2019-01-09T20:30:28.609Z,100704.23
2019-01-09T20:32:56.444Z,100705.95
2019-01-09T20:35:23.827Z,100704.95
2019-01-09T20:37:51.903Z,100706.28
2019-01-09T20:40:19.855Z,100711.17
2019-01-09T20:42:47.415Z,100711.68
2019-01-09T20:45:15.952Z,100711.83
2019-01-09T20:47:43.491Z,100710.80
2019-01-09T20:50:19.514Z,100705.72
2019-01-09T20:52:52.841Z,100706.09
2019-01-09T20:55:21.619Z,100705.44
2019-01-09T20:57:51.407Z,100704.05
2019-01-09T21:00:23.232Z,100712.31
2019-01-09T21:02:52.222Z,100710.47
2019-01-09T21:05:29.097Z,100716.38
2019-01-09T21:07:56.903Z,100715.55
2019-01-09T21:10:24.765Z,100722.81
2019-01-09T21:12:58.288Z,100721.64
2019-01-09T21:15:26.779Z,100723.83
2019-01-09T21:17:54.592Z,100722.10
2019-01-09T21:20:24.380Z,100725.84
2019-01-09T21:22:54.294Z,100724.85
2019-01-09T21:25:23.210Z,100729.69
2019-01-09T21:27:50.890Z,100727.50
2019-01-09T21:30:26.384Z,100726.16
2019-01-09T21:32:55.493Z,100731.36
2019-01-09T21:35:23.470Z,100735.91
2019-01-09T21:37:51.959Z,100743.36
2019-01-09T21:40:25.865Z,100744.34
2019-01-09T21:42:54.209Z,100755.66
2019-01-09T21:45:23.779Z,100757.18
2019-01-09T21:47:52.983Z,100756.05
2019-01-09T21:50:22.122Z,100770.55
2019-01-09T21:52:50.545Z,100770.42
2019-01-09T21:55:18.488Z,100771.40
2019-01-09T21:57:46.351Z,100772.61
2019-01-09T22:00:25.743Z,100778.84
2019-01-09T22:02:54.513Z,100772.56
2019-01-09T22:05:29.377Z,100770.56
2019-01-09T22:07:57.815Z,100764.32
2019-01-09T22:10:45.286Z,100777.44
2019-01-09T22:13:13.438Z,100770.89
2019-01-09T22:15:42.211Z,100771.34
2019-01-09T22:18:09.899Z,100770.03
2019-01-09T22:20:37.241Z,100771.02
2019-01-09T22:23:04.773Z,100767.84
2019-01-09T22:25:32.866Z,100762.59
2019-01-09T22:28:01.368Z,100766.13
2019-01-09T22:30:29.163Z,100764.64
2019-01-09T22:32:56.906Z,100774.22
2019-01-09T22:35:24.663Z,100766.13
2019-01-09T22:37:53.162Z,100770.48
2019-01-09T22:40:26.002Z,100768.81
2019-01-09T22:42:55.675Z,100777.75
2019-01-09T22:45:24.001Z,100777.94
2019-01-09T22:47:56.634Z,100779.92
2019-01-09T22:50:31.244Z,100777.55
2019-01-09T22:52:59.971Z,100785.32
2019-01-09T22:55:27.922Z,100785.97
2019-01-09T22:57:55.954Z,100791.33
2019-01-09T23:01:02.730Z,100800.30
2019-01-09T23:03:34.526Z,100801.14
2019-01-09T23:06:07.110Z,100807.66
2019-01-09T23:08:42.128Z,100806.16
2019-01-09T23:11:12.892Z,100808.52
2019-01-09T23:13:40.846Z,100810.86
2019-01-09T23:16:08.530Z,100801.78
2019-01-09T23:18:35.766Z,100808.30
2019-01-09T23:21:03.934Z,100812.33
2019-01-09T23:23:31.686Z,100814.19
2019-01-09T23:26:00.887Z,100816.89
2019-01-09T23:28:28.732Z,100818.42
2019-01-09T23:31:00.415Z,100826.33
2019-01-09T23:33:33.076Z,100825.64
2019-01-09T23:36:02.945Z,100824.34
2019-01-09T23:38:30.992Z,100822.28
2019-01-09T23:40:58.572Z,100821.91
2019-01-09T23:43:26.277Z,100822.92
2019-01-09T23:45:55.123Z,100822.60
2019-01-09T23:48:23.255Z,100835.92
2019-01-09T23:50:50.681Z,100833.36
2019-01-09T23:53:18.536Z,100831.69
2019-01-09T23:55:46.586Z,100843.14
2019-01-09T23:58:14.833Z,100843.14
